Time,TemperatureF,DewpointF,PressureIn,WindDirection,WindDirectionDegrees,WindSpeedMPH,WindSpeedGustMPH,Humidity,HourlyPrecipIn,Conditions,Clouds,dailyrainin,SoftwareType,DateUTC
2013-08-02 00:01:00,75.0,71.0,29.99,SSE,151,1.0,2.0,87,-99.99,,,-99.99,,2013-08-02 04:01:00,
2013-08-02 00:12:00,75.0,71.0,29.99,West,278,1.0,3.0,86,-99.99,,,-99.99,,2013-08-02 04:12:00,
2013-08-02 00:33:00,76.0,72.0,29.99,ESE,112,2.0,3.0,86,-99.99,,,-99.99,,2013-08-02 04:33:00,
2013-08-02 00:43:00,75.0,72.0,29.99,East,95,2.0,3.0,88,-99.99,,,-99.99,,2013-08-02 04:43:00,
2013-08-02 00:53:00,75.0,72.0,29.99,East,95,2.0,3.0,88,-99.99,,,-99.99,,2013-08-02 04:53:00,
2013-08-02 01:02:00,75.0,71.0,29.98,East,96,2.0,3.0,88,-99.99,,,-99.99,,2013-08-02 05:02:00,
2013-08-02 01:12:00,75.0,71.0,29.98,East,96,2.0,3.0,88,-99.99,,,-99.99,,2013-08-02 05:12:00,
2013-08-02 01:32:00,74.0,71.0,29.97,ESE,115,2.0,3.0,89,-99.99,,,-99.99,,2013-08-02 05:32:00,
2013-08-02 01:53:00,74.0,71.0,29.98,ESE,104,2.0,4.0,90,-99.99,,,-99.99,,2013-08-02 05:53:00,
2013-08-02 02:02:00,74.0,71.0,29.98,ESE,104,2.0,4.0,90,-99.99,,,-99.99,,2013-08-02 06:02:00,
2013-08-02 02:12:00,74.0,71.0,29.97,ESE,104,2.0,3.0,90,-99.99,,,-99.99,,2013-08-02 06:12:00,
2013-08-02 02:22:00,74.0,71.0,29.97,ESE,104,2.0,3.0,90,-99.99,,,-99.99,,2013-08-02 06:22:00,
2013-08-02 02:43:00,74.0,71.0,29.97,East,84,1.0,2.0,91,-99.99,,,-99.99,,2013-08-02 06:43:00,
2013-08-02 02:52:00,74.0,71.0,29.96,ESE,104,1.0,2.0,91,-99.99,,,-99.99,,2013-08-02 06:52:00,
2013-08-02 03:02:00,74.0,71.0,29.96,ESE,104,1.0,2.0,91,-99.99,,,-99.99,,2013-08-02 07:02:00,
2013-08-02 03:12:00,73.0,71.0,29.96,ENE,72,2.0,4.0,91,-99.99,,,-99.99,,2013-08-02 07:12:00,
2013-08-02 03:22:00,73.0,71.0,29.96,ENE,72,2.0,4.0,91,-99.99,,,-99.99,,2013-08-02 07:22:00,
2013-08-02 03:44:00,74.0,72.0,29.96,ENE,76,3.0,3.0,92,-99.99,,,-99.99,,2013-08-02 07:44:00,
2013-08-02 03:53:00,73.0,70.0,29.96,SE,137,2.0,3.0,91,-99.99,,,-99.99,,2013-08-02 07:53:00,
2013-08-02 04:02:00,73.0,70.0,29.96,SE,137,2.0,3.0,91,-99.99,,,-99.99,,2013-08-02 08:02:00,
2013-08-02 04:12:00,74.0,72.0,29.95,ESE,116,2.0,2.0,93,-99.99,,,-99.99,,2013-08-02 08:12:00,
2013-08-02 04:22:00,74.0,72.0,29.95,ESE,116,2.0,2.0,93,-99.99,,,-99.99,,2013-08-02 08:22:00,
2013-08-02 04:33:00,74.0,72.0,29.95,ESE,116,2.0,2.0,93,-99.99,,,-99.99,,2013-08-02 08:33:00,
2013-08-02 04:43:00,74.0,72.0,29.95,ENE,61,2.0,2.0,93,-99.99,,,-99.99,,2013-08-02 08:43:00,
2013-08-02 04:54:00,74.0,72.0,29.95,NE,45,1.0,2.0,93,-99.99,,,-99.99,,2013-08-02 08:54:00,
2013-08-02 05:02:00,74.0,71.0,29.95,ESE,118,2.0,3.0,93,-99.99,,,-99.99,,2013-08-02 09:02:00,
2013-08-02 05:12:00,74.0,71.0,29.95,ESE,118,2.0,3.0,93,-99.99,,,-99.99,,2013-08-02 09:12:00,
2013-08-02 05:23:00,73.0,72.0,29.94,South,178,2.0,3.0,94,-99.99,,,-99.99,,2013-08-02 09:23:00,
2013-08-02 05:33:00,73.0,72.0,29.94,South,178,2.0,3.0,94,-99.99,,,-99.99,,2013-08-02 09:33:00,
2013-08-02 05:53:00,73.0,72.0,29.93,South,174,1.0,2.0,94,-99.99,,,-99.99,,2013-08-02 09:53:00,
2013-08-02 06:03:00,73.0,72.0,29.93,South,186,2.0,3.0,95,-99.99,,,-99.99,,2013-08-02 10:03:00,
2013-08-02 06:12:00,73.0,72.0,29.93,South,186,2.0,3.0,95,-99.99,,,-99.99,,2013-08-02 10:12:00,
2013-08-02 06:43:00,73.0,71.0,29.95,ESE,104,2.0,3.0,95,-99.99,,,-99.99,,2013-08-02 10:43:00,
2013-08-02 06:52:00,73.0,71.0,29.95,ESE,104,2.0,3.0,95,-99.99,,,-99.99,,2013-08-02 10:52:00,
2013-08-02 07:12:00,73.0,71.0,29.96,South,172,1.0,2.0,94,-99.99,,,-99.99,,2013-08-02 11:12:00,
2013-08-02 07:32:00,73.0,71.0,29.96,East,99,2.0,3.0,95,-99.99,,,-99.99,,2013-08-02 11:32:00,
2013-08-02 07:43:00,72.0,71.0,29.95,SSE,153,3.0,4.0,95,-99.99,,,-99.99,,2013-08-02 11:43:00,
2013-08-02 07:52:00,72.0,71.0,29.95,SSE,153,3.0,4.0,95,-99.99,,,-99.99,,2013-08-02 11:52:00,
2013-08-02 08:12:00,73.0,72.0,29.96,East,89,2.0,3.0,95,-99.99,,,-99.99,,2013-08-02 12:12:00,
2013-08-02 08:33:00,76.0,74.0,29.96,SSE,154,1.0,1.0,94,-99.99,,,-99.99,,2013-08-02 12:33:00,
2013-08-02 08:43:00,78.0,75.0,29.97,ENE,72,2.0,3.0,89,-99.99,,,-99.99,,2013-08-02 12:43:00,
2013-08-02 08:52:00,78.0,75.0,29.97,ENE,72,2.0,3.0,89,-99.99,,,-99.99,,2013-08-02 12:52:00,
2013-08-02 09:03:00,79.0,75.0,29.97,SE,144,1.0,2.0,85,-99.99,,,-99.99,,2013-08-02 13:03:00,
2013-08-02 09:12:00,79.0,75.0,29.97,SE,144,1.0,2.0,85,-99.99,,,-99.99,,2013-08-02 13:12:00,
2013-08-02 09:43:00,80.0,74.0,29.97,SE,134,2.0,4.0,80,-99.99,,,-99.99,,2013-08-02 13:43:00,
2013-08-02 10:02:00,80.0,73.0,29.97,WNW,303,3.0,5.0,78,-99.99,,,-99.99,,2013-08-02 14:02:00,
2013-08-02 10:22:00,81.0,73.0,29.98,SSW,198,3.0,4.0,77,-99.99,,,-99.99,,2013-08-02 14:22:00,
2013-08-02 10:32:00,81.0,73.0,29.98,SSW,198,3.0,4.0,77,-99.99,,,-99.99,,2013-08-02 14:32:00,
2013-08-02 10:43:00,81.0,73.0,29.98,SW,224,3.0,5.0,75,-99.99,,,-99.99,,2013-08-02 14:43:00,
2013-08-02 10:53:00,81.0,73.0,29.98,WSW,248,3.0,5.0,74,-99.99,,,-99.99,,2013-08-02 14:53:00,
2013-08-02 11:03:00,82.0,72.0,29.98,NW,312,3.0,5.0,73,-99.99,,,-99.99,,2013-08-02 15:03:00,
2013-08-02 11:12:00,82.0,72.0,29.98,NW,312,3.0,5.0,73,-99.99,,,-99.99,,2013-08-02 15:12:00,
2013-08-02 11:43:00,82.0,72.0,29.99,NNW,329,5.0,7.0,71,-99.99,,,-99.99,,2013-08-02 15:43:00,
2013-08-02 11:52:00,83.0,72.0,29.99,NW,320,5.0,8.0,69,-99.99,,,-99.99,,2013-08-02 15:52:00,
2013-08-02 12:02:00,83.0,72.0,29.99,NW,320,5.0,8.0,69,-99.99,,,-99.99,,2013-08-02 16:02:00,
2013-08-02 12:12:00,84.0,73.0,30.00,WNW,295,5.0,8.0,70,-99.99,,,-99.99,,2013-08-02 16:12:00,
2013-08-02 12:22:00,84.0,73.0,30.00,WNW,295,5.0,8.0,70,-99.99,,,-99.99,,2013-08-02 16:22:00,
2013-08-02 12:32:00,84.0,73.0,30.00,WNW,295,5.0,8.0,70,-99.99,,,-99.99,,2013-08-02 16:32:00,
2013-08-02 12:42:00,84.0,73.0,30.00,WNW,295,5.0,8.0,70,-99.99,,,-99.99,,2013-08-02 16:42:00,
2013-08-02 12:43:00,84.0,73.0,30.00,WNW,295,5.0,8.0,70,-99.99,,,-99.99,,2013-08-02 16:43:00,
2013-08-02 13:02:00,84.0,73.0,30.00,WNW,295,5.0,8.0,70,-99.99,,,-99.99,,2013-08-02 17:02:00,
2013-08-02 13:12:00,84.0,73.0,30.00,WNW,295,5.0,8.0,70,-99.99,,,-99.99,,2013-08-02 17:12:00,
2013-08-02 13:22:00,84.0,73.0,30.00,WNW,295,5.0,8.0,70,-99.99,,,-99.99,,2013-08-02 17:22:00,
2013-08-02 13:35:00,84.0,73.0,30.00,WNW,295,5.0,8.0,70,-99.99,,,-99.99,,2013-08-02 17:35:00,
2013-08-02 14:02:00,86.0,71.0,29.98,NW,308,6.0,9.0,61,-99.99,,,-99.99,,2013-08-02 18:02:00,
2013-08-02 14:22:00,86.0,71.0,29.98,NW,311,6.0,9.0,60,-99.99,,,-99.99,,2013-08-02 18:22:00,
2013-08-02 14:32:00,86.0,71.0,29.98,NW,311,6.0,9.0,60,-99.99,,,-99.99,,2013-08-02 18:32:00,
2013-08-02 14:43:00,87.0,71.0,29.97,NW,316,6.0,8.0,57,-99.99,,,-99.99,,2013-08-02 18:43:00,
2013-08-02 15:02:00,88.0,71.0,29.97,NW,311,6.0,10.0,57,-99.99,,,-99.99,,2013-08-02 19:02:00,
2013-08-02 15:12:00,88.0,71.0,29.96,NW,320,7.0,10.0,56,-99.99,,,-99.99,,2013-08-02 19:12:00,
2013-08-02 15:32:00,89.0,71.0,29.96,NW,317,8.0,10.0,56,-99.99,,,-99.99,,2013-08-02 19:32:00,
2013-08-02 15:43:00,89.0,72.0,29.96,NW,321,7.0,10.0,55,-99.99,,,-99.99,,2013-08-02 19:43:00,
2013-08-02 15:52:00,89.0,72.0,29.96,NW,321,7.0,10.0,55,-99.99,,,-99.99,,2013-08-02 19:52:00,
2013-08-02 16:02:00,89.0,71.0,29.95,NW,318,6.0,9.0,54,-99.99,,,-99.99,,2013-08-02 20:02:00,
2013-08-02 16:12:00,89.0,71.0,29.95,NW,318,6.0,9.0,54,-99.99,,,-99.99,,2013-08-02 20:12:00,
2013-08-02 16:32:00,90.0,70.0,29.93,SSW,212,3.0,8.0,50,-99.99,,,-99.99,,2013-08-02 20:32:00,
2013-08-02 16:43:00,90.0,73.0,29.93,SE,145,8.0,15.0,57,-99.99,,,-99.99,,2013-08-02 20:43:00,
2013-08-02 16:52:00,90.0,73.0,29.93,SE,145,8.0,15.0,57,-99.99,,,-99.99,,2013-08-02 20:52:00,
2013-08-02 17:03:00,84.0,72.0,29.93,ENE,72,10.0,16.0,66,-99.99,,,-99.99,,2013-08-02 21:03:00,
2013-08-02 17:12:00,84.0,72.0,29.93,ENE,72,10.0,16.0,66,-99.99,,,-99.99,,2013-08-02 21:12:00,
2013-08-02 17:22:00,84.0,72.0,29.93,ENE,72,10.0,16.0,66,-99.99,,,-99.99,,2013-08-02 21:22:00,
2013-08-02 17:53:00,86.0,71.0,29.93,ENE,65,6.0,14.0,62,-99.99,,,-99.99,,2013-08-02 21:53:00,
2013-08-02 18:02:00,86.0,73.0,29.93,ENE,68,8.0,15.0,63,-99.99,,,-99.99,,2013-08-02 22:02:00,
2013-08-02 18:12:00,86.0,73.0,29.93,ENE,68,8.0,15.0,63,-99.99,,,-99.99,,2013-08-02 22:12:00,
2013-08-02 18:22:00,86.0,73.0,29.93,ENE,68,8.0,15.0,63,-99.99,,,-99.99,,2013-08-02 22:22:00,
2013-08-02 18:52:00,85.0,72.0,29.93,East,86,7.0,16.0,64,-99.99,,,-99.99,,2013-08-02 22:52:00,
2013-08-02 19:12:00,85.0,72.0,29.93,ENE,75,7.0,11.0,65,-99.99,,,-99.99,,2013-08-02 23:12:00,
2013-08-02 19:22:00,85.0,72.0,29.93,ENE,75,7.0,11.0,65,-99.99,,,-99.99,,2013-08-02 23:22:00,
2013-08-02 19:32:00,85.0,72.0,29.93,East,93,7.0,10.0,65,-99.99,,,-99.99,,2013-08-02 23:32:00,
2013-08-02 20:02:00,82.0,71.0,29.96,ESE,116,5.0,10.0,70,-99.99,,,-99.99,,2013-08-03 00:02:00,
2013-08-02 20:12:00,82.0,71.0,29.96,ESE,116,5.0,10.0,70,-99.99,,,-99.99,,2013-08-03 00:12:00,
2013-08-02 20:43:00,81.0,72.0,29.98,SE,131,4.0,7.0,74,-99.99,,,-99.99,,2013-08-03 00:43:00,
2013-08-02 20:52:00,79.0,72.0,29.99,SSW,209,5.0,10.0,79,-99.99,,,-99.99,,2013-08-03 00:52:00,
2013-08-02 21:03:00,79.0,72.0,29.99,SSW,209,5.0,10.0,79,-99.99,,,-99.99,,2013-08-03 01:03:00,
2013-08-02 21:12:00,78.0,72.0,30.00,SSW,208,7.0,11.0,81,-99.99,,,-99.99,,2013-08-03 01:12:00,
2013-08-02 21:22:00,78.0,72.0,30.00,SSW,208,7.0,11.0,81,-99.99,,,-99.99,,2013-08-03 01:22:00,
2013-08-02 21:42:00,78.0,72.0,30.00,SSW,208,7.0,11.0,82,-99.99,,,-99.99,,2013-08-03 01:42:00,
2013-08-02 21:53:00,77.0,71.0,30.00,SW,222,4.0,7.0,83,-99.99,,,-99.99,,2013-08-03 01:53:00,
2013-08-02 22:02:00,77.0,71.0,30.00,SW,222,4.0,7.0,83,-99.99,,,-99.99,,2013-08-03 02:02:00,
2013-08-02 22:12:00,76.0,71.0,30.01,SSW,193,3.0,5.0,83,-99.99,,,-99.99,,2013-08-03 02:12:00,
2013-08-02 22:22:00,76.0,71.0,30.01,SSW,193,3.0,5.0,83,-99.99,,,-99.99,,2013-08-03 02:22:00,
2013-08-02 22:32:00,76.0,71.0,30.01,SSW,193,3.0,5.0,83,-99.99,,,-99.99,,2013-08-03 02:32:00,
2013-08-02 22:43:00,76.0,71.0,30.01,SSW,196,2.0,3.0,84,-99.99,,,-99.99,,2013-08-03 02:43:00,
2013-08-02 23:03:00,76.0,71.0,30.02,SSE,150,2.0,2.0,85,-99.99,,,-99.99,,2013-08-03 03:03:00,
2013-08-02 23:22:00,75.0,71.0,30.02,SSW,204,2.0,3.0,86,-99.99,,,-99.99,,2013-08-03 03:22:00,
2013-08-02 23:32:00,75.0,71.0,30.02,SSW,204,2.0,3.0,86,-99.99,,,-99.99,,2013-08-03 03:32:00,
2013-08-02 23:43:00,75.0,71.0,30.02,SW,220,2.0,3.0,87,-99.99,,,-99.99,,2013-08-03 03:43:00,